sensor_id;sensor_type;location;lat;lon;timestamp;pressure;altitude;pressure_sealevel;temperature;humidity
73624;BME280;61921;53.226;-1.296;2023-04-10T00:01:00;100064.63;;;11.46;79.03
73624;BME280;61921;53.226;-1.296;2023-04-10T00:03:26;100057.08;;;11.42;79.70
73624;BME280;61921;53.226;-1.296;2023-04-10T00:05:52;100046.18;;;11.39;80.12
73624;BME280;61921;53.226;-1.296;2023-04-10T00:08:17;100051.30;;;11.43;81.09
73624;BME280;61921;53.226;-1.296;2023-04-10T00:10:42;100049.63;;;11.39;80.87
73624;BME280;61921;53.226;-1.296;2023-04-10T00:13:08;100045.15;;;11.47;80.58
73624;BME280;61921;53.226;-1.296;2023-04-10T00:15:34;100042.42;;;11.38;80.52
73624;BME280;61921;53.226;-1.296;2023-04-10T00:17:59;100034.01;;;11.39;81.19
73624;BME280;61921;53.226;-1.296;2023-04-10T00:20:25;100023.43;;;11.34;80.94
73624;BME280;61921;53.226;-1.296;2023-04-10T00:22:51;100021.13;;;11.37;81.68
73624;BME280;61921;53.226;-1.296;2023-04-10T00:25:16;100015.17;;;11.26;81.01
73624;BME280;61921;53.226;-1.296;2023-04-10T00:27:41;100016.17;;;11.33;81.32
73624;BME280;61921;53.226;-1.296;2023-04-10T00:30:08;100016.97;;;11.32;81.01
73624;BME280;61921;53.226;-1.296;2023-04-10T00:32:31;100019.09;;;11.30;81.34
73624;BME280;61921;53.226;-1.296;2023-04-10T00:34:57;100017.85;;;11.20;81.08
73624;BME280;61921;53.226;-1.296;2023-04-10T00:37:22;100013.14;;;11.26;81.01
73624;BME280;61921;53.226;-1.296;2023-04-10T00:39:47;100006.99;;;11.23;80.83
73624;BME280;61921;53.226;-1.296;2023-04-10T00:42:12;99998.48;;;11.26;81.55
73624;BME280;61921;53.226;-1.296;2023-04-10T00:44:38;99997.81;;;11.21;81.39
73624;BME280;61921;53.226;-1.296;2023-04-10T00:47:03;99995.21;;;11.21;81.93
73624;BME280;61921;53.226;-1.296;2023-04-10T00:49:29;99994.95;;;11.24;81.96
73624;BME280;61921;53.226;-1.296;2023-04-10T00:51:54;99995.05;;;11.27;81.88
73624;BME280;61921;53.226;-1.296;2023-04-10T00:54:20;99992.20;;;11.25;81.99
73624;BME280;61921;53.226;-1.296;2023-04-10T00:56:45;99994.92;;;11.20;82.20
73624;BME280;61921;53.226;-1.296;2023-04-10T00:59:11;99992.98;;;11.16;82.28
73624;BME280;61921;53.226;-1.296;2023-04-10T01:01:37;99984.33;;;11.20;81.99
73624;BME280;61921;53.226;-1.296;2023-04-10T01:04:02;99980.10;;;11.18;81.98
73624;BME280;61921;53.226;-1.296;2023-04-10T01:06:49;99979.47;;;11.22;82.37
73624;BME280;61921;53.226;-1.296;2023-04-10T01:08:59;99978.37;;;11.11;82.83
73624;BME280;61921;53.226;-1.296;2023-04-10T01:11:29;99976.25;;;11.13;83.02
73624;BME280;61921;53.226;-1.296;2023-04-10T01:13:52;99971.43;;;11.05;83.44
73624;BME280;61921;53.226;-1.296;2023-04-10T01:16:13;99968.23;;;11.13;83.98
73624;BME280;61921;53.226;-1.296;2023-04-10T01:18:39;99960.24;;;11.09;84.32
73624;BME280;61921;53.226;-1.296;2023-04-10T01:21:05;99956.36;;;11.06;84.40
73624;BME280;61921;53.226;-1.296;2023-04-10T01:23:44;99952.12;;;10.99;85.54
73624;BME280;61921;53.226;-1.296;2023-04-10T01:25:55;99949.76;;;10.89;86.53
73624;BME280;61921;53.226;-1.296;2023-04-10T01:30:44;99935.92;;;10.79;87.81
73624;BME280;61921;53.226;-1.296;2023-04-10T01:33:12;99934.76;;;10.85;88.36
73624;BME280;61921;53.226;-1.296;2023-04-10T01:35:35;99934.20;;;10.72;89.01
73624;BME280;61921;53.226;-1.296;2023-04-10T01:38:00;99924.19;;;10.72;89.84
73624;BME280;61921;53.226;-1.296;2023-04-10T01:40:25;99925.39;;;10.73;90.62
73624;BME280;61921;53.226;-1.296;2023-04-10T01:42:54;99925.11;;;10.71;90.94
73624;BME280;61921;53.226;-1.296;2023-04-10T01:45:18;99918.37;;;10.63;91.46
73624;BME280;61921;53.226;-1.296;2023-04-10T01:47:42;99916.40;;;10.57;92.08
73624;BME280;61921;53.226;-1.296;2023-04-10T01:50:08;99919.83;;;10.49;92.87
73624;BME280;61921;53.226;-1.296;2023-04-10T01:52:33;99916.86;;;10.39;94.12
73624;BME280;61921;53.226;-1.296;2023-04-10T01:54:58;99907.53;;;10.43;94.92
73624;BME280;61921;53.226;-1.296;2023-04-10T01:57:24;99899.09;;;10.31;95.10
73624;BME280;61921;53.226;-1.296;2023-04-10T01:59:50;99894.63;;;10.39;95.70
73624;BME280;61921;53.226;-1.296;2023-04-10T02:02:14;99889.18;;;10.35;96.08
73624;BME280;61921;53.226;-1.296;2023-04-10T02:04:40;99885.61;;;10.32;96.88
73624;BME280;61921;53.226;-1.296;2023-04-10T02:07:08;99878.78;;;10.29;96.91
73624;BME280;61921;53.226;-1.296;2023-04-10T02:09:38;99884.74;;;10.19;97.90
73624;BME280;61921;53.226;-1.296;2023-04-10T02:12:00;99878.53;;;10.29;98.61
73624;BME280;61921;53.226;-1.296;2023-04-10T02:14:21;99871.20;;;10.32;98.46
73624;BME280;61921;53.226;-1.296;2023-04-10T02:16:48;99876.31;;;10.24;98.66
73624;BME280;61921;53.226;-1.296;2023-04-10T02:19:13;99870.78;;;10.18;99.26
73624;BME280;61921;53.226;-1.296;2023-04-10T02:21:39;99868.35;;;10.16;100.00
73624;BME280;61921;53.226;-1.296;2023-04-10T02:24:04;99862.87;;;10.11;100.00
73624;BME280;61921;53.226;-1.296;2023-04-10T02:26:29;99861.23;;;10.14;100.00
73624;BME280;61921;53.226;-1.296;2023-04-10T02:28:54;99857.02;;;10.12;100.00
73624;BME280;61921;53.226;-1.296;2023-04-10T02:31:20;99857.22;;;10.18;100.00
73624;BME280;61921;53.226;-1.296;2023-04-10T02:33:45;99848.95;;;10.05;100.00
73624;BME280;61921;53.226;-1.296;2023-04-10T02:36:11;99849.92;;;10.07;100.00
73624;BME280;61921;53.226;-1.296;2023-04-10T02:38:36;99846.69;;;10.02;100.00
73624;BME280;61921;53.226;-1.296;2023-04-10T02:41:01;99847.25;;;10.06;100.00
73624;BME280;61921;53.226;-1.296;2023-04-10T02:43:27;99836.58;;;10.13;100.00
73624;BME280;61921;53.226;-1.296;2023-04-10T02:45:52;99826.33;;;10.17;100.00
73624;BME280;61921;53.226;-1.296;2023-04-10T02:48:18;99829.33;;;10.18;100.00
73624;BME280;61921;53.226;-1.296;2023-04-10T02:50:43;99819.68;;;10.20;100.00
73624;BME280;61921;53.226;-1.296;2023-04-10T02:53:09;99814.79;;;10.21;100.00
73624;BME280;61921;53.226;-1.296;2023-04-10T02:55:35;99807.65;;;10.17;100.00
73624;BME280;61921;53.226;-1.296;2023-04-10T02:58:00;99798.26;;;10.24;100.00
73624;BME280;61921;53.226;-1.296;2023-04-10T03:00:26;99792.69;;;10.16;100.00
73624;BME280;61921;53.226;-1.296;2023-04-10T03:02:51;99790.63;;;10.23;100.00
73624;BME280;61921;53.226;-1.296;2023-04-10T03:05:17;99787.29;;;10.21;100.00
73624;BME280;61921;53.226;-1.296;2023-04-10T03:07:42;99776.88;;;10.36;100.00
73624;BME280;61921;53.226;-1.296;2023-04-10T03:10:08;99771.39;;;10.36;100.00
73624;BME280;61921;53.226;-1.296;2023-04-10T03:12:33;99766.78;;;10.38;100.00
73624;BME280;61921;53.226;-1.296;2023-04-10T03:14:59;99762.84;;;10.46;100.00
73624;BME280;61921;53.226;-1.296;2023-04-10T03:17:24;99759.01;;;10.43;100.00
73624;BME280;61921;53.226;-1.296;2023-04-10T03:19:50;99753.00;;;10.39;100.00
73624;BME280;61921;53.226;-1.296;2023-04-10T03:22:15;99749.95;;;10.30;100.00
73624;BME280;61921;53.226;-1.296;2023-04-10T03:24:41;99749.19;;;10.31;100.00
73624;BME280;61921;53.226;-1.296;2023-04-10T03:27:06;99746.39;;;10.33;100.00
73624;BME280;61921;53.226;-1.296;2023-04-10T03:29:31;99743.30;;;10.22;100.00
73624;BME280;61921;53.226;-1.296;2023-04-10T03:31:57;99743.42;;;10.36;100.00
73624;BME280;61921;53.226;-1.296;2023-04-10T03:34:24;99741.39;;;10.44;100.00
73624;BME280;61921;53.226;-1.296;2023-04-10T03:36:48;99740.24;;;10.39;100.00
73624;BME280;61921;53.226;-1.296;2023-04-10T03:39:13;99743.03;;;10.44;100.00
73624;BME280;61921;53.226;-1.296;2023-04-10T03:41:39;99744.77;;;10.42;100.00
73624;BME280;61921;53.226;-1.296;2023-04-10T03:44:04;99737.94;;;10.47;100.00
73624;BME280;61921;53.226;-1.296;2023-04-10T03:46:29;99728.04;;;10.46;100.00
73624;BME280;61921;53.226;-1.296;2023-04-10T03:48:54;99730.80;;;10.44;100.00
73624;BME280;61921;53.226;-1.296;2023-04-10T03:51:19;99728.83;;;10.45;100.00
73624;BME280;61921;53.226;-1.296;2023-04-10T03:53:45;99731.09;;;10.53;100.00
73624;BME280;61921;53.226;-1.296;2023-04-10T03:56:11;99729.50;;;10.54;100.00
73624;BME280;61921;53.226;-1.296;2023-04-10T03:58:36;99732.88;;;10.50;100.00
73624;BME280;61921;53.226;-1.296;2023-04-10T04:01:04;99725.69;;;10.56;100.00
73624;BME280;61921;53.226;-1.296;2023-04-10T04:03:27;99717.87;;;10.57;100.00
73624;BME280;61921;53.226;-1.296;2023-04-10T04:05:53;99715.74;;;10.57;100.00
73624;BME280;61921;53.226;-1.296;2023-04-10T04:08:18;99707.48;;;10.60;100.00
73624;BME280;61921;53.226;-1.296;2023-04-10T04:10:44;99708.70;;;10.68;100.00
73624;BME280;61921;53.226;-1.296;2023-04-10T04:13:09;99707.51;;;10.66;100.00
73624;BME280;61921;53.226;-1.296;2023-04-10T04:15:35;99704.38;;;10.79;100.00
73624;BME280;61921;53.226;-1.296;2023-04-10T04:18:01;99693.80;;;10.72;100.00
73624;BME280;61921;53.226;-1.296;2023-04-10T04:20:27;99685.11;;;10.69;100.00
73624;BME280;61921;53.226;-1.296;2023-04-10T04:22:52;99684.91;;;10.61;100.00
73624;BME280;61921;53.226;-1.296;2023-04-10T04:25:18;99679.06;;;10.73;100.00
73624;BME280;61921;53.226;-1.296;2023-04-10T04:27:43;99683.99;;;10.64;100.00
73624;BME280;61921;53.226;-1.296;2023-04-10T04:30:10;99683.50;;;10.72;100.00
73624;BME280;61921;53.226;-1.296;2023-04-10T04:32:34;99678.73;;;10.74;100.00
73624;BME280;61921;53.226;-1.296;2023-04-10T04:35:00;99677.70;;;10.83;100.00
73624;BME280;61921;53.226;-1.296;2023-04-10T04:37:26;99678.64;;;10.91;100.00
73624;BME280;61921;53.226;-1.296;2023-04-10T04:39:51;99675.65;;;10.93;100.00
73624;BME280;61921;53.226;-1.296;2023-04-10T04:42:17;99674.24;;;10.99;100.00
73624;BME280;61921;53.226;-1.296;2023-04-10T04:44:42;99672.48;;;10.98;100.00
73624;BME280;61921;53.226;-1.296;2023-04-10T04:47:09;99674.42;;;11.01;100.00
73624;BME280;61921;53.226;-1.296;2023-04-10T04:49:33;99672.16;;;11.03;100.00
73624;BME280;61921;53.226;-1.296;2023-04-10T04:51:59;99667.75;;;11.01;100.00
73624;BME280;61921;53.226;-1.296;2023-04-10T04:54:24;99661.84;;;11.11;100.00
73624;BME280;61921;53.226;-1.296;2023-04-10T04:56:49;99655.72;;;11.13;100.00
73624;BME280;61921;53.226;-1.296;2023-04-10T04:59:15;99647.71;;;11.15;100.00
73624;BME280;61921;53.226;-1.296;2023-04-10T05:01:40;99645.57;;;11.24;100.00
73624;BME280;61921;53.226;-1.296;2023-04-10T05:04:05;99649.11;;;11.33;100.00
73624;BME280;61921;53.226;-1.296;2023-04-10T05:06:30;99644.81;;;11.36;100.00
73624;BME280;61921;53.226;-1.296;2023-04-10T05:08:56;99654.94;;;11.21;100.00
73624;BME280;61921;53.226;-1.296;2023-04-10T05:11:21;99656.79;;;11.21;100.00
73624;BME280;61921;53.226;-1.296;2023-04-10T05:13:47;99656.38;;;11.30;100.00
73624;BME280;61921;53.226;-1.296;2023-04-10T05:16:12;99654.24;;;11.33;100.00
73624;BME280;61921;53.226;-1.296;2023-04-10T05:18:38;99648.63;;;11.18;100.00
73624;BME280;61921;53.226;-1.296;2023-04-10T05:21:04;99644.42;;;11.24;100.00
73624;BME280;61921;53.226;-1.296;2023-04-10T05:23:29;99637.70;;;11.43;100.00
73624;BME280;61921;53.226;-1.296;2023-04-10T05:25:54;99638.91;;;11.47;100.00
73624;BME280;61921;53.226;-1.296;2023-04-10T05:28:19;99637.17;;;11.47;100.00
73624;BME280;61921;53.226;-1.296;2023-04-10T05:30:45;99637.92;;;11.56;100.00
73624;BME280;61921;53.226;-1.296;2023-04-10T05:33:10;99635.13;;;11.50;100.00
73624;BME280;61921;53.226;-1.296;2023-04-10T05:35:36;99631.47;;;11.50;100.00
73624;BME280;61921;53.226;-1.296;2023-04-10T05:38:01;99626.29;;;11.52;100.00
73624;BME280;61921;53.226;-1.296;2023-04-10T05:40:27;99626.24;;;11.57;100.00
73624;BME280;61921;53.226;-1.296;2023-04-10T05:42:52;99623.05;;;11.62;100.00
73624;BME280;61921;53.226;-1.296;2023-04-10T05:45:17;99622.38;;;11.50;100.00
73624;BME280;61921;53.226;-1.296;2023-04-10T05:47:42;99627.37;;;11.50;100.00
73624;BME280;61921;53.226;-1.296;2023-04-10T05:50:09;99627.70;;;11.41;100.00
73624;BME280;61921;53.226;-1.296;2023-04-10T05:52:34;99630.26;;;11.40;100.00
73624;BME280;61921;53.226;-1.296;2023-04-10T05:54:59;99621.84;;;11.46;100.00
73624;BME280;61921;53.226;-1.296;2023-04-10T05:57:25;99621.77;;;11.51;100.00
73624;BME280;61921;53.226;-1.296;2023-04-10T05:59:50;99614.55;;;11.47;100.00
73624;BME280;61921;53.226;-1.296;2023-04-10T06:02:15;99611.50;;;11.48;100.00
73624;BME280;61921;53.226;-1.296;2023-04-10T06:04:41;99609.29;;;11.56;100.00
73624;BME280;61921;53.226;-1.296;2023-04-10T06:07:06;99604.54;;;11.49;100.00
73624;BME280;61921;53.226;-1.296;2023-04-10T06:09:31;99604.49;;;11.54;100.00
73624;BME280;61921;53.226;-1.296;2023-04-10T06:11:56;99604.14;;;11.38;100.00
73624;BME280;61921;53.226;-1.296;2023-04-10T06:14:22;99605.60;;;11.41;100.00
73624;BME280;61921;53.226;-1.296;2023-04-10T06:16:47;99598.41;;;11.41;100.00
73624;BME280;61921;53.226;-1.296;2023-04-10T06:19:12;99591.27;;;11.55;100.00
73624;BME280;61921;53.226;-1.296;2023-04-10T06:21:37;99585.90;;;11.51;100.00
73624;BME280;61921;53.226;-1.296;2023-04-10T06:24:03;99585.46;;;11.61;100.00
73624;BME280;61921;53.226;-1.296;2023-04-10T06:26:28;99584.65;;;11.58;100.00
73624;BME280;61921;53.226;-1.296;2023-04-10T06:28:54;99578.99;;;11.75;100.00
73624;BME280;61921;53.226;-1.296;2023-04-10T06:31:20;99578.90;;;11.67;100.00
73624;BME280;61921;53.226;-1.296;2023-04-10T06:33:45;99572.93;;;11.77;100.00
73624;BME280;61921;53.226;-1.296;2023-04-10T06:36:10;99567.24;;;11.79;100.00
73624;BME280;61921;53.226;-1.296;2023-04-10T06:38:35;99564.63;;;11.86;100.00
73624;BME280;61921;53.226;-1.296;2023-04-10T06:41:01;99560.82;;;11.85;100.00
73624;BME280;61921;53.226;-1.296;2023-04-10T06:43:26;99559.39;;;11.89;100.00
73624;BME280;61921;53.226;-1.296;2023-04-10T06:45:51;99557.93;;;11.97;100.00
73624;BME280;61921;53.226;-1.296;2023-04-10T06:48:16;99557.60;;;11.93;100.00
73624;BME280;61921;53.226;-1.296;2023-04-10T06:50:42;99558.24;;;11.98;100.00
73624;BME280;61921;53.226;-1.296;2023-04-10T06:53:08;99558.83;;;11.86;100.00
73624;BME280;61921;53.226;-1.296;2023-04-10T06:55:32;99555.41;;;11.97;100.00
73624;BME280;61921;53.226;-1.296;2023-04-10T06:57:58;99546.35;;;11.92;100.00
73624;BME280;61921;53.226;-1.296;2023-04-10T07:00:24;99545.42;;;11.81;100.00
73624;BME280;61921;53.226;-1.296;2023-04-10T07:02:48;99549.33;;;11.92;100.00
73624;BME280;61921;53.226;-1.296;2023-04-10T07:05:14;99548.51;;;11.87;100.00
73624;BME280;61921;53.226;-1.296;2023-04-10T07:07:39;99546.90;;;12.04;100.00
73624;BME280;61921;53.226;-1.296;2023-04-10T07:10:05;99544.44;;;12.17;100.00
73624;BME280;61921;53.226;-1.296;2023-04-10T07:12:30;99547.00;;;12.34;100.00
73624;BME280;61921;53.226;-1.296;2023-04-10T07:14:55;99545.53;;;12.38;100.00
73624;BME280;61921;53.226;-1.296;2023-04-10T07:17:21;99537.33;;;12.40;100.00
73624;BME280;61921;53.226;-1.296;2023-04-10T07:19:46;99530.55;;;12.44;100.00
73624;BME280;61921;53.226;-1.296;2023-04-10T07:22:11;99524.24;;;12.44;100.00
73624;BME280;61921;53.226;-1.296;2023-04-10T07:24:37;99520.36;;;12.55;100.00
73624;BME280;61921;53.226;-1.296;2023-04-10T07:27:03;99515.84;;;12.51;100.00
73624;BME280;61921;53.226;-1.296;2023-04-10T07:29:27;99510.13;;;12.54;100.00
73624;BME280;61921;53.226;-1.296;2023-04-10T07:31:53;99508.28;;;12.43;100.00
73624;BME280;61921;53.226;-1.296;2023-04-10T07:34:19;99503.28;;;12.48;100.00
73624;BME280;61921;53.226;-1.296;2023-04-10T07:36:45;99498.31;;;12.55;100.00
73624;BME280;61921;53.226;-1.296;2023-04-10T07:39:09;99488.98;;;12.55;100.00
73624;BME280;61921;53.226;-1.296;2023-04-10T07:41:35;99478.41;;;12.57;100.00
73624;BME280;61921;53.226;-1.296;2023-04-10T07:43:59;99477.27;;;12.64;100.00
73624;BME280;61921;53.226;-1.296;2023-04-10T07:46:25;99479.60;;;12.65;100.00
73624;BME280;61921;53.226;-1.296;2023-04-10T07:48:51;99487.95;;;12.46;100.00
73624;BME280;61921;53.226;-1.296;2023-04-10T07:51:16;99487.44;;;12.59;100.00
73624;BME280;61921;53.226;-1.296;2023-04-10T07:53:42;99491.40;;;12.78;100.00
73624;BME280;61921;53.226;-1.296;2023-04-10T07:58:32;99487.89;;;12.66;100.00
73624;BME280;61921;53.226;-1.296;2023-04-10T08:00:57;99478.15;;;12.72;100.00
73624;BME280;61921;53.226;-1.296;2023-04-10T08:03:22;99480.07;;;12.64;99.91
73624;BME280;61921;53.226;-1.296;2023-04-10T08:05:48;99476.18;;;12.69;100.00
73624;BME280;61921;53.226;-1.296;2023-04-10T08:08:14;99470.27;;;12.79;99.97
73624;BME280;61921;53.226;-1.296;2023-04-10T08:10:39;99467.62;;;12.84;99.83
73624;BME280;61921;53.226;-1.296;2023-04-10T08:13:04;99469.20;;;12.81;99.79
73624;BME280;61921;53.226;-1.296;2023-04-10T08:15:30;99471.97;;;12.74;100.00
73624;BME280;61921;53.226;-1.296;2023-04-10T08:17:55;99462.16;;;12.66;100.00
73624;BME280;61921;53.226;-1.296;2023-04-10T08:20:20;99459.86;;;12.54;100.00
73624;BME280;61921;53.226;-1.296;2023-04-10T08:22:45;99457.07;;;12.53;100.00
73624;BME280;61921;53.226;-1.296;2023-04-10T08:25:11;99452.10;;;12.60;100.00
73624;BME280;61921;53.226;-1.296;2023-04-10T08:27:36;99456.99;;;12.78;100.00
73624;BME280;61921;53.226;-1.296;2023-04-10T08:30:02;99442.44;;;12.75;100.00
73624;BME280;61921;53.226;-1.296;2023-04-10T08:32:27;99439.91;;;12.74;100.00
73624;BME280;61921;53.226;-1.296;2023-04-10T08:34:52;99437.64;;;12.85;100.00
73624;BME280;61921;53.226;-1.296;2023-04-10T08:37:18;99439.10;;;12.91;100.00
73624;BME280;61921;53.226;-1.296;2023-04-10T08:39:44;99422.25;;;12.79;100.00
73624;BME280;61921;53.226;-1.296;2023-04-10T08:42:09;99419.01;;;12.74;100.00
73624;BME280;61921;53.226;-1.296;2023-04-10T08:44:34;99426.43;;;12.77;100.00
73624;BME280;61921;53.226;-1.296;2023-04-10T08:46:59;99419.81;;;12.76;100.00
73624;BME280;61921;53.226;-1.296;2023-04-10T08:49:30;99413.65;;;13.02;100.00
73624;BME280;61921;53.226;-1.296;2023-04-10T08:51:53;99406.86;;;12.65;99.97
73624;BME280;61921;53.226;-1.296;2023-04-10T08:54:18;99404.50;;;12.85;100.00
73624;BME280;61921;53.226;-1.296;2023-04-10T08:56:42;99400.96;;;12.99;100.00
73624;BME280;61921;53.226;-1.296;2023-04-10T08:59:06;99396.93;;;13.00;100.00
73624;BME280;61921;53.226;-1.296;2023-04-10T09:01:31;99391.74;;;13.07;100.00
73624;BME280;61921;53.226;-1.296;2023-04-10T09:03:57;99392.35;;;13.23;100.00
73624;BME280;61921;53.226;-1.296;2023-04-10T09:06:22;99387.68;;;13.15;99.01
73624;BME280;61921;53.226;-1.296;2023-04-10T09:08:47;99388.25;;;13.09;99.11
73624;BME280;61921;53.226;-1.296;2023-04-10T09:11:13;99386.97;;;12.98;98.94
73624;BME280;61921;53.226;-1.296;2023-04-10T09:13:39;99386.40;;;13.02;99.31
73624;BME280;61921;53.226;-1.296;2023-04-10T09:16:03;99378.66;;;13.14;99.79
73624;BME280;61921;53.226;-1.296;2023-04-10T09:18:40;99362.08;;;12.86;100.00
73624;BME280;61921;53.226;-1.296;2023-04-10T09:23:20;99347.84;;;12.69;99.90
73624;BME280;61921;53.226;-1.296;2023-04-10T09:25:45;99353.37;;;12.62;98.74
73624;BME280;61921;53.226;-1.296;2023-04-10T09:28:10;99354.07;;;12.86;99.04
73624;BME280;61921;53.226;-1.296;2023-04-10T09:30:38;99353.48;;;13.09;98.93
73624;BME280;61921;53.226;-1.296;2023-04-10T09:33:00;99351.64;;;13.08;98.93
73624;BME280;61921;53.226;-1.296;2023-04-10T09:35:35;99349.23;;;13.17;98.69
73624;BME280;61921;53.226;-1.296;2023-04-10T09:37:51;99344.11;;;13.16;99.11
73624;BME280;61921;53.226;-1.296;2023-04-10T09:40:21;99337.39;;;13.36;99.10
73624;BME280;61921;53.226;-1.296;2023-04-10T09:42:42;99326.59;;;13.36;98.73
73624;BME280;61921;53.226;-1.296;2023-04-10T09:45:07;99317.31;;;13.65;98.04
73624;BME280;61921;53.226;-1.296;2023-04-10T09:47:33;99314.08;;;13.91;96.97
73624;BME280;61921;53.226;-1.296;2023-04-10T09:49:59;99306.31;;;14.04;96.18
73624;BME280;61921;53.226;-1.296;2023-04-10T09:52:24;99303.83;;;13.88;94.28
73624;BME280;61921;53.226;-1.296;2023-04-10T09:54:48;99298.93;;;13.93;95.13
73624;BME280;61921;53.226;-1.296;2023-04-10T09:57:16;99291.20;;;13.76;95.12
73624;BME280;61921;53.226;-1.296;2023-04-10T09:59:39;99279.55;;;13.99;94.73
73624;BME280;61921;53.226;-1.296;2023-04-10T10:02:05;99274.56;;;13.87;94.82
73624;BME280;61921;53.226;-1.296;2023-04-10T10:04:30;99270.96;;;13.66;93.79
73624;BME280;61921;53.226;-1.296;2023-04-10T10:06:56;99268.53;;;13.86;95.21
73624;BME280;61921;53.226;-1.296;2023-04-10T10:09:20;99267.32;;;13.62;94.90
73624;BME280;61921;53.226;-1.296;2023-04-10T10:11:47;99261.55;;;13.62;95.04
73624;BME280;61921;53.226;-1.296;2023-04-10T10:14:15;99258.04;;;13.54;95.01
73624;BME280;61921;53.226;-1.296;2023-04-10T10:16:42;99250.24;;;13.56;94.97
73624;BME280;61921;53.226;-1.296;2023-04-10T10:19:07;99241.69;;;13.78;94.17
73624;BME280;61921;53.226;-1.296;2023-04-10T10:21:27;99239.02;;;13.80;93.35
73624;BME280;61921;53.226;-1.296;2023-04-10T10:23:54;99231.81;;;13.99;93.45
73624;BME280;61921;53.226;-1.296;2023-04-10T10:26:18;99239.03;;;14.15;93.23
73624;BME280;61921;53.226;-1.296;2023-04-10T10:28:45;99242.51;;;14.15;91.55
73624;BME280;61921;53.226;-1.296;2023-04-10T10:31:09;99237.79;;;14.43;91.25
73624;BME280;61921;53.226;-1.296;2023-04-10T10:33:35;99225.33;;;14.65;89.85
73624;BME280;61921;53.226;-1.296;2023-04-10T10:35:59;99221.25;;;14.90;89.49
73624;BME280;61921;53.226;-1.296;2023-04-10T10:38:24;99208.90;;;15.14;88.15
73624;BME280;61921;53.226;-1.296;2023-04-10T10:40:59;99206.98;;;15.09;85.89
73624;BME280;61921;53.226;-1.296;2023-04-10T10:43:24;99203.50;;;15.00;85.31
73624;BME280;61921;53.226;-1.296;2023-04-10T10:45:47;99201.20;;;15.17;86.28
73624;BME280;61921;53.226;-1.296;2023-04-10T10:48:06;99194.30;;;15.35;86.21
73624;BME280;61921;53.226;-1.296;2023-04-10T10:52:56;99182.38;;;15.04;85.61
73624;BME280;61921;53.226;-1.296;2023-04-10T10:55:29;99169.50;;;15.29;84.82
73624;BME280;61921;53.226;-1.296;2023-04-10T10:57:48;99179.18;;;15.11;84.36
73624;BME280;61921;53.226;-1.296;2023-04-10T11:00:14;99169.99;;;15.13;85.29
73624;BME280;61921;53.226;-1.296;2023-04-10T11:02:37;99163.37;;;15.07;85.23
73624;BME280;61921;53.226;-1.296;2023-04-10T11:05:02;99163.57;;;15.25;85.97
73624;BME280;61921;53.226;-1.296;2023-04-10T11:09:53;99148.89;;;15.06;81.79
73624;BME280;61921;53.226;-1.296;2023-04-10T11:12:20;99139.35;;;15.39;81.23
73624;BME280;61921;53.226;-1.296;2023-04-10T11:14:55;99139.87;;;15.57;81.25
73624;BME280;61921;53.226;-1.296;2023-04-10T11:17:09;99136.12;;;15.73;79.55
73624;BME280;61921;53.226;-1.296;2023-04-10T11:22:03;99116.07;;;15.55;77.07
73624;BME280;61921;53.226;-1.296;2023-04-10T11:24:25;99115.44;;;15.45;75.72
73624;BME280;61921;53.226;-1.296;2023-04-10T11:26:50;99108.78;;;15.61;77.98
73624;BME280;61921;53.226;-1.296;2023-04-10T11:31:43;99107.02;;;15.21;77.34
73624;BME280;61921;53.226;-1.296;2023-04-10T11:34:07;99100.67;;;15.14;78.50
73624;BME280;61921;53.226;-1.296;2023-04-10T11:36:32;99093.57;;;15.29;79.04
73624;BME280;61921;53.226;-1.296;2023-04-10T11:38:57;99090.48;;;15.40;77.85
73624;BME280;61921;53.226;-1.296;2023-04-10T11:41:27;99093.88;;;15.53;77.77
73624;BME280;61921;53.226;-1.296;2023-04-10T11:43:51;99078.64;;;15.72;77.32
73624;BME280;61921;53.226;-1.296;2023-04-10T11:46:12;99071.23;;;15.59;75.83
73624;BME280;61921;53.226;-1.296;2023-04-10T11:48:38;99059.34;;;15.69;76.70
73624;BME280;61921;53.226;-1.296;2023-04-10T11:51:08;99057.15;;;15.39;76.01
73624;BME280;61921;53.226;-1.296;2023-04-10T11:53:28;99051.79;;;15.10;75.87
73624;BME280;61921;53.226;-1.296;2023-04-10T11:55:54;99051.87;;;14.74;77.06
73624;BME280;61921;53.226;-1.296;2023-04-10T11:58:23;99059.92;;;14.59;79.45
73624;BME280;61921;53.226;-1.296;2023-04-10T12:00:44;99063.47;;;14.62;82.15
73624;BME280;61921;53.226;-1.296;2023-04-10T12:03:09;99068.80;;;13.99;82.39
73624;BME280;61921;53.226;-1.296;2023-04-10T12:05:44;99077.41;;;13.59;86.03
73624;BME280;61921;53.226;-1.296;2023-04-10T12:08:01;99061.18;;;13.36;88.92
73624;BME280;61921;53.226;-1.296;2023-04-10T12:10:25;99050.92;;;13.06;88.61
73624;BME280;61921;53.226;-1.296;2023-04-10T12:12:50;99049.90;;;12.72;85.31
73624;BME280;61921;53.226;-1.296;2023-04-10T12:15:26;99088.63;;;12.48;85.55
73624;BME280;61921;53.226;-1.296;2023-04-10T12:17:42;99110.94;;;11.73;87.67
73624;BME280;61921;53.226;-1.296;2023-04-10T12:20:07;99099.00;;;11.14;87.28
73624;BME280;61921;53.226;-1.296;2023-04-10T12:22:32;99105.68;;;11.10;89.37
73624;BME280;61921;53.226;-1.296;2023-04-10T12:24:57;99091.13;;;10.90;91.30
73624;BME280;61921;53.226;-1.296;2023-04-10T12:27:24;99079.86;;;10.93;92.22
73624;BME280;61921;53.226;-1.296;2023-04-10T12:29:51;99070.52;;;11.30;92.56
73624;BME280;61921;53.226;-1.296;2023-04-10T12:32:14;99069.40;;;11.36;91.24
73624;BME280;61921;53.226;-1.296;2023-04-10T12:34:39;99067.96;;;11.58;90.75
73624;BME280;61921;53.226;-1.296;2023-04-10T12:37:05;99073.21;;;12.17;92.62
73624;BME280;61921;53.226;-1.296;2023-04-10T12:39:30;99066.52;;;12.86;90.55
73624;BME280;61921;53.226;-1.296;2023-04-10T12:44:20;99054.10;;;13.77;87.68
73624;BME280;61921;53.226;-1.296;2023-04-10T12:46:46;99051.39;;;13.66;84.66
73624;BME280;61921;53.226;-1.296;2023-04-10T12:49:13;99056.90;;;13.77;82.99
73624;BME280;61921;53.226;-1.296;2023-04-10T12:51:43;99066.38;;;13.50;81.70
73624;BME280;61921;53.226;-1.296;2023-04-10T12:54:02;99059.10;;;13.26;78.82